Time,TemperatureF,DewpointF,PressureIn,WindDirection,WindDirectionDegrees,WindSpeedMPH,WindSpeedGustMPH,Humidity,HourlyPrecipIn,Conditions,Clouds,dailyrainin,SoftwareType,DateUTC
2013-01-02 00:03:00,27.3,6.1,30.09,NW,315,8.0,16.0,40,0.00,,,-99.99,WeatherLink 5.7,2013-01-02 05:03:00,
2013-01-02 00:13:00,27.2,5.5,30.08,NW,315,9.0,18.0,39,0.00,,,-99.99,WeatherLink 5.7,2013-01-02 05:13:00,
2013-01-02 00:23:00,27.0,6.4,30.08,NW,315,10.0,20.0,41,0.00,,,-99.99,WeatherLink 5.7,2013-01-02 05:23:00,
2013-01-02 00:33:00,27.0,6.4,30.08,NW,315,10.0,20.0,41,0.00,,,-99.99,WeatherLink 5.7,2013-01-02 05:33:00,
2013-01-02 00:43:00,27.0,6.4,30.08,NW,315,8.0,20.0,41,0.00,,,-99.99,WeatherLink 5.7,2013-01-02 05:43:00,
2013-01-02 00:53:00,26.7,6.1,30.07,NW,315,8.0,15.0,41,0.00,,,-99.99,WeatherLink 5.7,2013-01-02 05:53:00,
2013-01-02 01:03:00,26.5,6.5,30.08,NW,315,5.0,14.0,42,0.00,,,-99.99,WeatherLink 5.7,2013-01-02 06:03:00,
2013-01-02 01:13:00,26.5,7.0,30.08,NW,315,7.0,16.0,43,0.00,,,-99.99,WeatherLink 5.7,2013-01-02 06:13:00,
2013-01-02 01:24:00,26.3,6.8,30.08,NW,315,8.0,16.0,43,0.00,,,-99.99,WeatherLink 5.7,2013-01-02 06:24:00,
2013-01-02 01:33:00,26.1,7.1,30.08,NW,315,7.0,16.0,44,0.00,,,-99.99,WeatherLink 5.7,2013-01-02 06:33:00,
2013-01-02 01:43:00,26.0,7.0,30.09,NW,315,5.0,11.0,44,0.00,,,-99.99,WeatherLink 5.7,2013-01-02 06:43:00,
2013-01-02 01:53:00,26.1,6.6,30.08,NW,315,7.0,16.0,43,0.00,,,-99.99,WeatherLink 5.7,2013-01-02 06:53:00,
2013-01-02 02:03:00,25.7,6.8,30.09,NW,315,9.0,17.0,44,0.00,,,-99.99,WeatherLink 5.7,2013-01-02 07:03:00,
2013-01-02 02:13:00,25.7,6.8,30.08,NW,315,8.0,17.0,44,0.00,,,-99.99,WeatherLink 5.7,2013-01-02 07:13:00,
2013-01-02 02:23:00,25.3,6.4,30.09,NW,315,5.0,12.0,44,0.00,,,-99.99,WeatherLink 5.7,2013-01-02 07:23:00,
2013-01-02 02:33:00,25.3,6.9,30.09,NW,315,5.0,17.0,45,0.00,,,-99.99,WeatherLink 5.7,2013-01-02 07:33:00,
2013-01-02 02:44:00,25.0,6.6,30.09,NNW,337,8.0,18.0,45,0.00,,,-99.99,WeatherLink 5.7,2013-01-02 07:44:00,
2013-01-02 02:53:00,24.7,6.3,30.10,NW,315,7.0,15.0,45,0.00,,,-99.99,WeatherLink 5.7,2013-01-02 07:53:00,
2013-01-02 03:03:00,24.6,6.3,30.10,North,0,5.0,10.0,45,0.00,,,-99.99,WeatherLink 5.7,2013-01-02 08:03:00,
2013-01-02 03:13:00,24.5,6.2,30.09,NW,315,6.0,14.0,45,0.00,,,-99.99,WeatherLink 5.7,2013-01-02 08:13:00,
2013-01-02 03:23:00,24.4,6.6,30.09,NNW,337,4.0,12.0,46,0.00,,,-99.99,WeatherLink 5.7,2013-01-02 08:23:00,
2013-01-02 03:33:00,24.4,5.6,30.09,North,0,6.0,12.0,44,0.00,,,-99.99,WeatherLink 5.7,2013-01-02 08:33:00,
2013-01-02 03:43:00,24.2,5.9,30.09,North,0,5.0,12.0,45,0.00,,,-99.99,WeatherLink 5.7,2013-01-02 08:43:00,
2013-01-02 03:53:00,24.3,5.5,30.09,NW,315,5.0,12.0,44,0.00,,,-99.99,WeatherLink 5.7,2013-01-02 08:53:00,
2013-01-02 04:03:00,24.1,5.3,30.09,NW,315,6.0,13.0,44,0.00,,,-99.99,WeatherLink 5.7,2013-01-02 09:03:00,
2013-01-02 04:13:00,24.1,5.3,30.09,NW,315,7.0,13.0,44,0.00,,,-99.99,WeatherLink 5.7,2013-01-02 09:13:00,
2013-01-02 04:23:00,23.9,5.1,30.08,NW,315,6.0,12.0,44,0.00,,,-99.99,WeatherLink 5.7,2013-01-02 09:23:00,
2013-01-02 04:33:00,23.9,5.1,30.09,NW,315,6.0,10.0,44,0.00,,,-99.99,WeatherLink 5.7,2013-01-02 09:33:00,
2013-01-02 04:43:00,23.7,4.9,30.09,NNW,337,5.0,14.0,44,0.00,,,-99.99,WeatherLink 5.7,2013-01-02 09:43:00,
2013-01-02 04:53:00,23.8,5.0,30.09,NNW,337,5.0,11.0,44,0.00,,,-99.99,WeatherLink 5.7,2013-01-02 09:53:00,
2013-01-02 05:03:00,23.8,4.5,30.09,NW,315,6.0,11.0,43,0.00,,,-99.99,WeatherLink 5.7,2013-01-02 10:03:00,
2013-01-02 05:13:00,23.7,4.4,30.09,NW,315,5.0,11.0,43,0.00,,,-99.99,WeatherLink 5.7,2013-01-02 10:13:00,
2013-01-02 05:23:00,23.6,4.3,30.09,NW,315,6.0,11.0,43,0.00,,,-99.99,WeatherLink 5.7,2013-01-02 10:23:00,
2013-01-02 05:33:00,23.5,4.8,30.09,NW,315,6.0,12.0,44,0.00,,,-99.99,WeatherLink 5.7,2013-01-02 10:33:00,
2013-01-02 05:43:00,23.6,4.3,30.09,NW,315,5.0,12.0,43,0.00,,,-99.99,WeatherLink 5.7,2013-01-02 10:43:00,
2013-01-02 05:53:00,23.6,4.8,30.09,NW,315,4.0,8.0,44,0.00,,,-99.99,WeatherLink 5.7,2013-01-02 10:53:00,
2013-01-02 06:03:00,23.7,4.4,30.09,NW,315,4.0,10.0,43,0.00,,,-99.99,WeatherLink 5.7,2013-01-02 11:03:00,
2013-01-02 06:13:00,23.9,5.1,30.09,NW,315,3.0,10.0,44,0.00,,,-99.99,WeatherLink 5.7,2013-01-02 11:13:00,
2013-01-02 06:23:00,24.1,4.8,30.09,NW,315,4.0,10.0,43,0.00,,,-99.99,WeatherLink 5.7,2013-01-02 11:23:00,
2013-01-02 06:33:00,24.3,6.0,30.10,NW,315,2.0,6.0,45,0.00,,,-99.99,WeatherLink 5.7,2013-01-02 11:33:00,
2013-01-02 06:43:00,25.8,6.3,30.10,NW,315,2.0,4.0,43,0.00,,,-99.99,WeatherLink 5.7,2013-01-02 11:43:00,
2013-01-02 06:53:00,26.4,6.4,30.10,NW,315,2.0,4.0,42,0.00,,,-99.99,WeatherLink 5.7,2013-01-02 11:53:00,
2013-01-02 07:03:00,25.8,6.3,30.10,NW,315,2.0,4.0,43,0.00,,,-99.99,WeatherLink 5.7,2013-01-02 12:03:00,
2013-01-02 07:13:00,26.4,6.9,30.10,NW,315,1.0,3.0,43,0.00,,,-99.99,WeatherLink 5.7,2013-01-02 12:13:00,
2013-01-02 07:24:00,26.7,6.1,30.10,NW,315,2.0,5.0,41,0.00,,,-99.99,WeatherLink 5.7,2013-01-02 12:24:00,
2013-01-02 07:33:00,25.6,5.6,30.11,NW,315,3.0,7.0,42,0.00,,,-99.99,WeatherLink 5.7,2013-01-02 12:33:00,
2013-01-02 07:43:00,24.7,5.3,30.11,NW,315,3.0,7.0,43,0.00,,,-99.99,WeatherLink 5.7,2013-01-02 12:43:00,
2013-01-02 07:53:00,24.6,5.8,30.11,NW,315,3.0,7.0,44,0.00,,,-99.99,WeatherLink 5.7,2013-01-02 12:53:00,
2013-01-02 08:03:00,24.7,5.3,30.11,NW,315,3.0,8.0,43,0.00,,,-99.99,WeatherLink 5.7,2013-01-02 13:03:00,
2013-01-02 08:13:00,24.9,5.0,30.11,NW,315,4.0,9.0,42,0.00,,,-99.99,WeatherLink 5.7,2013-01-02 13:13:00,
2013-01-02 08:23:00,24.7,5.3,30.13,NW,315,5.0,11.0,43,0.00,,,-99.99,WeatherLink 5.7,2013-01-02 13:23:00,
2013-01-02 08:33:00,24.3,5.0,30.13,WNW,292,6.0,13.0,43,0.00,,,-99.99,WeatherLink 5.7,2013-01-02 13:33:00,
2013-01-02 08:44:00,24.4,5.1,30.12,NW,315,5.0,11.0,43,0.00,,,-99.99,WeatherLink 5.7,2013-01-02 13:44:00,
2013-01-02 08:53:00,24.8,5.4,30.12,West,270,6.0,11.0,43,0.00,,,-99.99,WeatherLink 5.7,2013-01-02 13:53:00,
2013-01-02 09:03:00,24.8,5.4,30.14,NW,315,6.0,14.0,43,0.00,,,-99.99,WeatherLink 5.7,2013-01-02 14:03:00,
2013-01-02 09:13:00,25.1,5.7,30.14,WNW,292,6.0,11.0,43,0.00,,,-99.99,WeatherLink 5.7,2013-01-02 14:13:00,
2013-01-02 09:23:00,25.5,5.0,30.15,West,270,7.0,15.0,41,0.00,,,-99.99,WeatherLink 5.7,2013-01-02 14:23:00,
2013-01-02 09:33:00,25.4,5.5,30.15,West,270,7.0,13.0,42,0.00,,,-99.99,WeatherLink 5.7,2013-01-02 14:33:00,
2013-01-02 09:43:00,26.1,5.0,30.15,West,270,6.0,11.0,40,0.00,,,-99.99,WeatherLink 5.7,2013-01-02 14:43:00,
2013-01-02 09:53:00,26.0,6.0,30.15,WNW,292,5.0,9.0,42,0.00,,,-99.99,WeatherLink 5.7,2013-01-02 14:53:00,
2013-01-02 10:03:00,26.8,5.7,30.15,WNW,292,5.0,10.0,40,0.00,,,-99.99,WeatherLink 5.7,2013-01-02 15:03:00,
2013-01-02 10:13:00,26.7,7.2,30.16,WNW,292,6.0,13.0,43,0.00,,,-99.99,WeatherLink 5.7,2013-01-02 15:13:00,
2013-01-02 10:23:00,27.5,6.3,30.15,West,270,6.0,11.0,40,0.00,,,-99.99,WeatherLink 5.7,2013-01-02 15:23:00,
2013-01-02 10:33:00,27.0,6.4,30.15,West,270,7.0,12.0,41,0.00,,,-99.99,WeatherLink 5.7,2013-01-02 15:33:00,
2013-01-02 10:43:00,26.9,6.3,30.14,WNW,292,6.0,13.0,41,0.00,,,-99.99,WeatherLink 5.7,2013-01-02 15:43:00,
2013-01-02 10:53:00,28.0,6.8,30.14,West,270,6.0,10.0,40,0.00,,,-99.99,WeatherLink 5.7,2013-01-02 15:53:00,
2013-01-02 11:03:00,28.5,7.2,30.14,West,270,7.0,11.0,40,0.00,,,-99.99,WeatherLink 5.7,2013-01-02 16:03:00,
2013-01-02 11:13:00,28.2,6.9,30.14,West,270,9.0,15.0,40,0.00,,,-99.99,WeatherLink 5.7,2013-01-02 16:13:00,
2013-01-02 11:23:00,28.5,7.8,30.13,West,270,8.0,16.0,41,0.00,,,-99.99,WeatherLink 5.7,2013-01-02 16:23:00,
2013-01-02 11:33:00,29.2,7.8,30.12,WNW,292,8.0,16.0,40,0.00,,,-99.99,WeatherLink 5.7,2013-01-02 16:33:00,
2013-01-02 11:43:00,29.4,7.5,30.11,WNW,292,10.0,21.0,39,0.00,,,-99.99,WeatherLink 5.7,2013-01-02 16:43:00,
2013-01-02 11:53:00,29.3,7.4,30.12,WNW,292,10.0,19.0,39,0.00,,,-99.99,WeatherLink 5.7,2013-01-02 16:53:00,
2013-01-02 12:03:00,29.6,7.1,30.12,WNW,292,11.0,24.0,38,0.00,,,-99.99,WeatherLink 5.7,2013-01-02 17:03:00,
2013-01-02 12:13:00,29.4,7.5,30.11,WNW,292,9.0,18.0,39,0.00,,,-99.99,WeatherLink 5.7,2013-01-02 17:13:00,
2013-01-02 12:23:00,29.7,7.2,30.11,WNW,292,10.0,20.0,38,0.00,,,-99.99,WeatherLink 5.7,2013-01-02 17:23:00,
2013-01-02 12:33:00,29.7,7.2,30.10,NW,315,10.0,21.0,38,0.00,,,-99.99,WeatherLink 5.7,2013-01-02 17:33:00,
2013-01-02 12:43:00,29.8,7.8,30.09,NW,315,9.0,21.0,39,0.00,,,-99.99,WeatherLink 5.7,2013-01-02 17:43:00,
2013-01-02 12:53:00,29.9,7.3,30.10,WNW,292,9.0,22.0,38,0.00,,,-99.99,WeatherLink 5.7,2013-01-02 17:53:00,
2013-01-02 13:03:00,29.8,8.4,30.10,WNW,292,8.0,18.0,40,0.00,,,-99.99,WeatherLink 5.7,2013-01-02 18:03:00,
2013-01-02 13:13:00,30.5,7.9,30.10,West,270,9.0,18.0,38,0.00,,,-99.99,WeatherLink 5.7,2013-01-02 18:13:00,
2013-01-02 13:23:00,30.8,8.1,30.09,WNW,292,8.0,17.0,38,0.00,,,-99.99,WeatherLink 5.7,2013-01-02 18:23:00,
2013-01-02 13:33:00,31.6,7.7,30.10,West,270,9.0,18.0,36,0.00,,,-99.99,WeatherLink 5.7,2013-01-02 18:33:00,
2013-01-02 13:43:00,31.3,7.4,30.10,WNW,292,11.0,20.0,36,0.00,,,-99.99,WeatherLink 5.7,2013-01-02 18:43:00,
2013-01-02 13:53:00,31.4,7.5,30.10,NW,315,8.0,17.0,36,0.00,,,-99.99,WeatherLink 5.7,2013-01-02 18:53:00,
2013-01-02 14:03:00,32.4,6.4,30.11,WNW,292,11.0,21.0,33,0.00,,,-99.99,WeatherLink 5.7,2013-01-02 19:03:00,
2013-01-02 14:13:00,32.4,6.4,30.10,WNW,292,9.0,19.0,33,0.00,,,-99.99,WeatherLink 5.7,2013-01-02 19:13:00,
2013-01-02 14:23:00,32.7,6.7,30.10,WNW,292,12.0,19.0,33,0.00,,,-99.99,WeatherLink 5.7,2013-01-02 19:23:00,
2013-01-02 14:33:00,32.3,6.4,30.11,NW,315,12.0,21.0,33,0.00,,,-99.99,WeatherLink 5.7,2013-01-02 19:33:00,
2013-01-02 14:43:00,32.4,6.4,30.11,WNW,292,12.0,20.0,33,0.00,,,-99.99,WeatherLink 5.7,2013-01-02 19:43:00,
2013-01-02 14:53:00,32.4,6.4,30.12,NW,315,11.0,19.0,33,0.00,,,-99.99,WeatherLink 5.7,2013-01-02 19:53:00,
2013-01-02 15:03:00,32.9,6.9,30.12,WNW,292,10.0,20.0,33,0.00,,,-99.99,WeatherLink 5.7,2013-01-02 20:03:00,
2013-01-02 15:13:00,33.0,7.0,30.12,WNW,292,10.0,19.0,33,0.00,,,-99.99,WeatherLink 5.7,2013-01-02 20:13:00,
2013-01-02 15:23:00,33.1,7.1,30.12,WNW,292,10.0,17.0,33,0.00,,,-99.99,WeatherLink 5.7,2013-01-02 20:23:00,
2013-01-02 15:33:00,33.0,7.0,30.13,WNW,292,9.0,21.0,33,0.00,,,-99.99,WeatherLink 5.7,2013-01-02 20:33:00,
2013-01-02 15:43:00,33.0,7.6,30.13,NW,315,8.0,16.0,34,0.00,,,-99.99,WeatherLink 5.7,2013-01-02 20:43:00,
2013-01-02 15:53:00,33.1,7.1,30.14,WNW,292,8.0,16.0,33,0.00,,,-99.99,WeatherLink 5.7,2013-01-02 20:53:00,
2013-01-02 16:03:00,32.7,7.4,30.14,WNW,292,10.0,17.0,34,0.00,,,-99.99,WeatherLink 5.7,2013-01-02 21:03:00,
2013-01-02 16:13:00,32.7,7.4,30.14,NW,315,7.0,16.0,34,0.00,,,-99.99,WeatherLink 5.7,2013-01-02 21:13:00,
2013-01-02 16:23:00,33.0,7.6,30.14,NW,315,7.0,14.0,34,0.00,,,-99.99,WeatherLink 5.7,2013-01-02 21:23:00,
2013-01-02 16:33:00,32.6,7.9,30.14,WNW,292,8.0,18.0,35,0.00,,,-99.99,WeatherLink 5.7,2013-01-02 21:33:00,
2013-01-02 16:43:00,32.3,7.7,30.15,WNW,292,9.0,18.0,35,0.00,,,-99.99,WeatherLink 5.7,2013-01-02 21:43:00,
2013-01-02 16:53:00,32.1,7.5,30.15,NW,315,8.0,18.0,35,0.00,,,-99.99,WeatherLink 5.7,2013-01-02 21:53:00,
2013-01-02 17:03:00,31.8,7.8,30.16,WNW,292,8.0,17.0,36,0.00,,,-99.99,WeatherLink 5.7,2013-01-02 22:03:00,
2013-01-02 17:13:00,31.8,8.4,30.16,WNW,292,7.0,16.0,37,0.00,,,-99.99,WeatherLink 5.7,2013-01-02 22:13:00,
2013-01-02 17:23:00,31.7,7.7,30.17,NW,315,7.0,14.0,36,0.00,,,-99.99,WeatherLink 5.7,2013-01-02 22:23:00,
2013-01-02 17:33:00,31.6,8.3,30.18,WNW,292,6.0,10.0,37,0.00,,,-99.99,WeatherLink 5.7,2013-01-02 22:33:00,
2013-01-02 17:43:00,31.8,7.8,30.17,WNW,292,5.0,11.0,36,0.00,,,-99.99,WeatherLink 5.7,2013-01-02 22:43:00,
2013-01-02 17:53:00,31.7,8.4,30.18,WNW,292,6.0,12.0,37,0.00,,,-99.99,WeatherLink 5.7,2013-01-02 22:53:00,
2013-01-02 18:03:00,32.1,8.7,30.18,West,270,4.0,9.0,37,0.00,,,-99.99,WeatherLink 5.7,2013-01-02 23:03:00,
2013-01-02 18:13:00,33.2,9.7,30.18,West,270,3.0,6.0,37,0.00,,,-99.99,WeatherLink 5.7,2013-01-02 23:13:00,
2013-01-02 18:23:00,33.0,8.9,30.19,West,270,4.0,9.0,36,0.00,,,-99.99,WeatherLink 5.7,2013-01-02 23:23:00,
2013-01-02 18:33:00,32.6,9.2,30.19,WNW,292,4.0,9.0,37,0.00,,,-99.99,WeatherLink 5.7,2013-01-02 23:33:00,
2013-01-02 18:43:00,32.9,8.8,30.19,WNW,292,4.0,9.0,36,0.00,,,-99.99,WeatherLink 5.7,2013-01-02 23:43:00,
2013-01-02 18:53:00,32.4,9.0,30.19,WNW,292,4.0,8.0,37,0.00,,,-99.99,WeatherLink 5.7,2013-01-02 23:53:00,
2013-01-02 19:03:00,31.5,8.2,30.19,WNW,292,5.0,12.0,37,0.00,,,-99.99,WeatherLink 5.7,2013-01-03 00:03:00,
2013-01-02 19:13:00,31.3,8.6,30.19,WNW,292,4.0,8.0,38,0.00,,,-99.99,WeatherLink 5.7,2013-01-03 00:13:00,
2013-01-02 19:23:00,31.2,9.1,30.20,WNW,292,3.0,9.0,39,0.00,,,-99.99,WeatherLink 5.7,2013-01-03 00:23:00,
2013-01-02 19:33:00,31.5,8.8,30.20,WNW,292,2.0,6.0,38,0.00,,,-99.99,WeatherLink 5.7,2013-01-03 00:33:00,
2013-01-02 19:43:00,32.1,9.9,30.20,WNW,292,3.0,5.0,39,0.00,,,-99.99,WeatherLink 5.7,2013-01-03 00:43:00,
2013-01-02 19:53:00,32.1,9.3,30.20,WNW,292,3.0,7.0,38,0.00,,,-99.99,WeatherLink 5.7,2013-01-03 00:53:00,
2013-01-02 20:03:00,32.0,9.8,30.20,WNW,292,4.0,10.0,39,0.00,,,-99.99,WeatherLink 5.7,2013-01-03 01:03:00,
2013-01-02 20:13:00,32.7,9.8,30.19,West,270,3.0,6.0,38,0.00,,,-99.99,WeatherLink 5.7,2013-01-03 01:13:00,
2013-01-02 20:23:00,32.5,10.3,30.20,West,270,4.0,9.0,39,0.00,,,-99.99,WeatherLink 5.7,2013-01-03 01:23:00,
2013-01-02 20:33:00,32.3,10.1,30.20,West,270,4.0,6.0,39,0.00,,,-99.99,WeatherLink 5.7,2013-01-03 01:33:00,
2013-01-02 20:43:00,32.7,10.4,30.20,West,270,3.0,8.0,39,0.00,,,-99.99,WeatherLink 5.7,2013-01-03 01:43:00,
2013-01-02 20:53:00,33.6,10.7,30.20,West,270,3.0,6.0,38,0.00,,,-99.99,WeatherLink 5.7,2013-01-03 01:53:00,
2013-01-02 21:03:00,32.9,10.0,30.20,West,270,6.0,9.0,38,0.00,,,-99.99,WeatherLink 5.7,2013-01-03 02:03:00,
2013-01-02 21:13:00,32.2,10.0,30.21,West,270,5.0,7.0,39,0.00,,,-99.99,WeatherLink 5.7,2013-01-03 02:13:00,
2013-01-02 21:23:00,32.6,10.3,30.21,West,270,4.0,10.0,39,0.00,,,-99.99,WeatherLink 5.7,2013-01-03 02:23:00,
2013-01-02 21:33:00,32.6,10.3,30.21,West,270,5.0,8.0,39,0.00,,,-99.99,WeatherLink 5.7,2013-01-03 02:33:00,
2013-01-02 21:43:00,32.0,9.2,30.22,West,270,4.0,7.0,38,0.00,,,-99.99,WeatherLink 5.7,2013-01-03 02:43:00,
2013-01-02 21:53:00,32.1,10.5,30.22,West,270,4.0,6.0,40,0.00,,,-99.99,WeatherLink 5.7,2013-01-03 02:53:00,
2013-01-02 22:03:00,32.4,10.7,30.22,West,270,3.0,7.0,40,0.00,,,-99.99,WeatherLink 5.7,2013-01-03 03:03:00,
2013-01-02 22:13:00,31.8,11.8,30.23,West,270,4.0,7.0,43,0.00,,,-99.99,WeatherLink 5.7,2013-01-03 03:13:00,
2013-01-02 22:23:00,32.1,11.0,30.23,West,270,4.0,7.0,41,0.00,,,-99.99,WeatherLink 5.7,2013-01-03 03:23:00,
2013-01-02 22:33:00,31.6,11.6,30.23,West,270,3.0,7.0,43,0.00,,,-99.99,WeatherLink 5.7,2013-01-03 03:33:00,
2013-01-02 22:43:00,31.4,11.5,30.23,West,270,4.0,8.0,43,0.00,,,-99.99,WeatherLink 5.7,2013-01-03 03:43:00,
2013-01-02 22:53:00,31.3,11.9,30.24,West,270,3.0,6.0,44,0.00,,,-99.99,WeatherLink 5.7,2013-01-03 03:53:00,
2013-01-02 23:03:00,32.1,11.0,30.25,West,270,3.0,7.0,41,0.00,,,-99.99,WeatherLink 5.7,2013-01-03 04:03:00,
2013-01-02 23:13:00,31.8,12.3,30.24,West,270,4.0,7.0,44,0.00,,,-99.99,WeatherLink 5.7,2013-01-03 04:13:00,
2013-01-02 23:23:00,32.0,12.5,30.25,West,270,3.0,5.0,44,0.00,,,-99.99,WeatherLink 5.7,2013-01-03 04:23:00,
2013-01-02 23:33:00,31.6,12.2,30.24,West,270,3.0,7.0,44,0.00,,,-99.99,WeatherLink 5.7,2013-01-03 04:33:00,
2013-01-02 23:43:00,31.4,12.0,30.25,West,270,3.0,7.0,44,0.00,,,-99.99,WeatherLink 5.7,2013-01-03 04:43:00,
2013-01-02 23:53:00,31.6,11.6,30.25,West,270,4.0,8.0,43,0.00,,,-99.99,WeatherLink 5.7,2013-01-03 04:53:00,